Geneva, OH (44041)

11:56 PM EST on February 07, 2016 (GMT -0500)
Swan/Liberty-Geneva | | Change Station
CLOSE
Current Station
Personal Weather Station
Location: Geneva, OH
Elevation: 686 ft
Nearby Weather Stations

Elev 686 ft 41.80 °N, 80.95 °W | Updated 23 seconds ago

Overcast
Overcast
44.6 °F
Feels Like 43 °F
N
4.0
Wind Variable Wind from SSE
Gusts 4.9 mph

Today
High -- | Low -- °F
--% Chance of Precip.
Yesterday
High -- | Low -- °F
Precip. -- in
Pressure 29.81 in
Visibility 10.0 miles
Clouds Overcast 8500 ft
Windchill 43 °F
Dew Point 22 °F
Humidity 40%
Rainfall 0.02 in
Snow Depth Not available.
7:30 AM 5:46 PM
Waning Crescent, 0% visible
METAR KHZY 080453Z AUTO 16006KT 10SM OVC085 05/M03 A2979 RMK AO2 SLP092 T00501033 400941028 TSNO
Pressure 29.81 in
Visibility 10.0 miles
Clouds Overcast 8500 ft
Windchill 43 °F
Dew Point 22 °F
Humidity 40%
Rainfall 0.02 in
Snow Depth Not available.
7:30 AM 5:46 PM
Waning Crescent, 0% visible
METAR KHZY 080453Z AUTO 16006KT 10SM OVC085 05/M03 A2979 RMK AO2 SLP092 T00501033 400941028 TSNO

10-Day Weather Forecast

Almanac

Astronomy

Feb. 07, 2016 Rise Set
Actual Time
Civil Twilight
Nautical Twilight
Astronomical Twilight
Moon
Length of Visible Light
Length of Day
Tomorrow will be .
, % of the Moon is Illuminated

Today's Extremes

State Highs State Lows

Community

WunderPhotos

Upload Photos

1,891,382 photos uploaded!

WunderBlog® & News

Nearby

Air Quality

  Air Quality AQ Index Pollutant
Not available.

Snow Depth

Station Depth Elevation

Earthquake Activity

City Distance Mag. Time & Date
Minimum magnitude displayed is 2.5.

Coastal Water Temperatures

Place Temperature

Stations

Nearby Weather Stations

Station Location Temp. Windchill Dew Point Humidity Wind Precip. Elev Updated Type
                   

Watches & Warnings

There are currently no watches in effect.